Time;durP1;ratioP1;P1;durP2;ratioP2;P2;SDS_P1;SDS_P2;PMS_P1;PMS_P2;Temp;Humidity;BMP_temperature;BMP_pressure;BME280_temperature;BME280_humidity;BME280_pressure;Samples;Min_cycle;Max_cycle;Signal;HPM_P1;HPM_P2
2022/11/18 00:00:22;;;;;;;;;1.25;1.00;;;;;10.20;76.96;99568.41;5039599;28;63365;-83
2022/11/18 00:02:47;;;;;;;;;2.75;1.00;;;;;10.19;76.99;99563.28;5040439;28;45453;-82
2022/11/18 00:05:12;;;;;;;;;2.00;0.50;;;;;10.19;77.20;99569.31;5039572;28;66190;-83
2022/11/18 00:07:37;;;;;;;;;1.00;0.00;;;;;10.19;76.94;99565.88;5057152;28;69706;-83
2022/11/18 00:10:03;;;;;;;;;0.00;0.00;;;;;10.18;76.96;99578.06;5057545;28;58146;-82
2022/11/18 00:15:12;;;;;;;;;1.00;1.00;;;;;10.20;76.98;99589.22;5057973;28;45957;-82
2022/11/18 00:17:38;;;;;;;;;1.00;1.00;;;;;10.21;77.25;99590.06;5039606;28;53876;-83
2022/11/18 00:20:03;;;;;;;;;3.00;1.00;;;;;10.20;76.64;99588.38;5055961;28;64836;-83
2022/11/18 00:22:28;;;;;;;;;1.00;1.00;;;;;10.17;76.98;99593.72;5058131;28;45424;-83
2022/11/18 00:24:54;;;;;;;;;2.00;0.00;;;;;10.16;76.93;99599.81;5057799;28;46236;-83
2022/11/18 00:27:19;;;;;;;;;1.00;1.00;;;;;10.14;77.04;99599.91;5055368;28;72927;-83
2022/11/18 00:29:44;;;;;;;;;1.00;0.00;;;;;10.12;77.00;99606.91;5057745;28;46812;-83
2022/11/18 00:32:10;;;;;;;;;0.00;0.00;;;;;10.11;77.03;99615.66;5057935;28;45759;-83
2022/11/18 00:34:35;;;;;;;;;0.00;0.00;;;;;10.10;77.24;99616.53;5057484;28;53797;-83
2022/11/18 00:37:00;;;;;;;;;0.25;0.00;;;;;10.09;77.48;99627.88;5057557;28;45523;-82
2022/11/18 00:39:26;;;;;;;;;1.00;0.00;;;;;10.07;77.09;99627.94;5074581;27;45305;-83
2022/11/18 00:44:35;;;;;;;;;2.00;0.00;;;;;10.04;77.43;99635.03;5076409;27;45826;-83
2022/11/18 00:47:01;;;;;;;;;0.00;0.00;;;;;10.05;77.09;99631.53;5076699;28;45507;-83
2022/11/18 00:49:26;;;;;;;;;0.75;0.75;;;;;10.06;77.48;99646.19;5077979;28;45461;-83
2022/11/18 00:51:52;;;;;;;;;0.00;0.00;;;;;10.05;77.08;99650.56;5076713;27;45539;-84
2022/11/18 00:54:17;;;;;;;;;2.75;0.00;;;;;10.03;77.50;99646.34;5059528;28;45426;-83
2022/11/18 00:56:43;;;;;;;;;0.25;0.25;;;;;10.03;77.58;99648.94;5077180;27;45340;-83
2022/11/18 00:59:08;;;;;;;;;0.00;0.00;;;;;10.01;77.42;99654.22;5076752;27;45435;-84
2022/11/18 01:01:33;;;;;;;;;0.00;0.00;;;;;10.01;77.14;99650.75;5075484;27;64002;-83
2022/11/18 01:03:59;;;;;;;;;1.00;1.00;;;;;10.00;77.33;99651.69;5075359;28;72665;-83
2022/11/18 01:06:24;;;;;;;;;1.25;0.00;;;;;9.97;77.35;99659.59;5075932;27;57943;-84
2022/11/18 01:08:50;;;;;;;;;0.50;0.00;;;;;9.94;77.25;99660.59;5076882;28;57036;-83
2022/11/18 01:13:58;;;;;;;;;0.00;0.00;;;;;9.94;77.26;99662.34;5076283;27;45742;-84
2022/11/18 01:16:26;;;;;;;;;0.00;0.00;;;;;9.91;77.26;99665.06;5076771;28;63652;-83
2022/11/18 01:18:52;;;;;;;;;0.00;0.00;;;;;9.90;77.64;99659.03;5077407;27;45375;-83
2022/11/18 01:21:17;;;;;;;;;1.00;0.00;;;;;9.90;77.28;99664.25;5076174;27;45650;-83
2022/11/18 01:23:43;;;;;;;;;0.00;0.00;;;;;9.91;77.18;99672.88;5075654;28;46061;-83
2022/11/18 01:26:10;;;;;;;;;2.00;0.00;;;;;9.93;77.03;99665.84;5076031;27;45315;-83
2022/11/18 01:28:36;;;;;;;;;0.75;0.00;;;;;9.94;77.62;99678.78;5059343;28;45387;-83
2022/11/18 01:31:05;;;;;;;;;0.00;0.00;;;;;9.93;77.05;99678.84;5076057;28;45328;-83
2022/11/18 01:33:31;;;;;;;;;5.50;0.00;;;;;9.92;77.09;99679.75;5077108;28;45393;-83
2022/11/18 01:35:56;;;;;;;;;0.25;0.00;;;;;9.89;77.59;99673.78;5076848;28;49560;-83
2022/11/18 01:38:21;;;;;;;;;0.00;0.00;;;;;9.88;77.69;99677.28;5075640;27;58984;-83
2022/11/18 01:40:47;;;;;;;;;0.00;0.00;;;;;9.87;77.19;99674.75;5077049;27;45263;-83
2022/11/18 01:43:14;;;;;;;;;0.00;0.00;;;;;9.86;77.11;99692.13;5076016;27;72761;-83
2022/11/18 01:45:42;;;;;;;;;1.50;0.00;;;;;9.86;77.36;99691.25;5076966;27;45809;-84
2022/11/18 01:48:13;;;;;;;;;0.00;0.00;;;;;9.87;77.25;99696.38;5042204;28;45403;-83
2022/11/18 01:50:44;;;;;;;;;0.25;0.00;;;;;9.85;77.35;99690.41;5076892;27;45406;-83
2022/11/18 01:53:15;;;;;;;;;0.00;0.00;;;;;9.85;77.42;99693.00;5058274;28;46521;-83
2022/11/18 01:55:45;;;;;;;;;0.00;0.00;;;;;9.85;77.38;99692.19;5057927;28;45753;-83
2022/11/18 01:58:15;;;;;;;;;0.00;0.00;;;;;9.84;77.49;99701.75;5058797;28;45317;-83
2022/11/18 02:00:41;;;;;;;;;0.00;0.00;;;;;9.84;77.57;99709.53;5058766;28;45481;-83
2022/11/18 02:03:06;;;;;;;;;0.00;0.00;;;;;9.85;77.12;99705.16;5058384;27;46296;-83
2022/11/18 02:05:33;;;;;;;;;0.50;0.00;;;;;9.85;77.75;99707.78;5058431;28;45443;-83
2022/11/18 02:08:00;;;;;;;;;1.00;0.00;;;;;9.87;77.43;99711.16;5058356;28;45306;-83
2022/11/18 02:10:25;;;;;;;;;0.00;0.00;;;;;9.86;77.41;99714.63;5058578;28;45326;-83
2022/11/18 02:12:52;;;;;;;;;1.25;0.25;;;;;9.85;77.20;99715.56;5058166;28;53221;-83
2022/11/18 02:15:24;;;;;;;;;0.75;0.00;;;;;9.83;77.54;99713.03;5041532;28;45767;-83
2022/11/18 02:18:26;;;;;;;;;1.00;0.00;;;;;9.80;77.41;99718.34;5058450;28;45364;-83
2022/11/18 02:20:55;;;;;;;;;1.00;0.00;;;;;9.80;77.32;99718.34;5076442;27;45499;-83
2022/11/18 02:23:39;;;;;;;;;0.00;0.00;;;;;9.79;77.76;99721.88;5057939;28;45434;-83
2022/11/18 02:26:26;;;;;;;;;0.00;0.00;;;;;9.78;77.57;99727.13;5076415;27;45618;-84
2022/11/18 02:29:07;;;;;;;;;0.00;0.00;;;;;9.76;77.57;99726.34;5075258;28;45403;-83
2022/11/18 02:31:53;;;;;;;;;0.00;0.00;;;;;9.75;77.84;99737.63;5058264;28;45505;-83
2022/11/18 02:34:33;;;;;;;;;0.00;0.00;;;;;9.73;77.77;99726.47;5075430;27;45484;-83
2022/11/18 02:37:03;;;;;;;;;0.00;0.00;;;;;9.73;78.04;99734.25;5057742;28;45715;-83
2022/11/18 02:39:35;;;;;;;;;0.00;0.00;;;;;9.76;77.88;99728.94;5057846;28;45333;-83
2022/11/18 02:42:03;;;;;;;;;0.00;0.00;;;;;9.75;77.61;99733.31;5074819;27;45497;-83
2022/11/18 02:44:30;;;;;;;;;0.00;0.00;;;;;9.72;77.67;99732.59;5058032;28;45371;-83
2022/11/18 02:46:59;;;;;;;;;0.00;0.00;;;;;9.72;77.95;99740.38;5057924;28;45332;-83
2022/11/18 02:49:36;;;;;;;;;0.00;0.00;;;;;9.69;77.75;99739.59;5058168;28;45479;-83
2022/11/18 02:52:02;;;;;;;;;2.00;0.00;;;;;9.71;77.73;99743.88;5057713;28;45360;-83
2022/11/18 02:54:28;;;;;;;;;0.00;0.00;;;;;9.71;78.14;99746.47;5057718;28;47319;-83
2022/11/18 02:56:54;;;;;;;;;0.00;0.00;;;;;9.71;77.88;99742.13;5057449;28;55922;-83
2022/11/18 02:59:19;;;;;;;;;0.00;0.00;;;;;9.71;77.80;99746.47;5057899;28;45336;-82
2022/11/18 03:01:45;;;;;;;;;0.00;0.00;;;;;9.71;77.84;99743.88;5058002;28;45385;-83
2022/11/18 03:04:12;;;;;;;;;0.00;0.00;;;;;9.72;78.17;99750.78;5057647;28;46245;-83
2022/11/18 03:06:39;;;;;;;;;0.00;0.00;;;;;9.69;77.85;99744.81;5058533;28;45650;-82
2022/11/18 03:09:22;;;;;;;;;0.25;0.00;;;;;9.68;77.64;99750.91;5061522;27;45394;-83
2022/11/18 03:11:53;;;;;;;;;0.00;0.00;;;;;9.69;77.86;99751.72;5061478;28;45486;-83
2022/11/18 03:14:27;;;;;;;;;0.00;0.00;;;;;9.68;77.91;99765.66;5079262;27;47057;-82
2022/11/18 03:17:03;;;;;;;;;0.00;0.00;;;;;9.66;77.66;99765.72;5061215;28;45360;-83
2022/11/18 03:19:41;;;;;;;;;0.00;0.00;;;;;9.66;77.99;99755.31;5061038;28;45280;-82
2022/11/18 03:22:39;;;;;;;;;0.00;0.00;;;;;9.64;77.54;99756.28;5079360;27;45503;-82
2022/11/18 03:25:22;;;;;;;;;0.00;0.00;;;;;9.64;77.60;99764.09;4996401;28;45498;-82
2022/11/18 03:28:18;;;;;;;;;0.00;0.00;;;;;9.63;77.61;99768.41;4996689;28;45795;-83
2022/11/18 03:30:52;;;;;;;;;0.00;0.00;;;;;9.62;77.67;99766.75;4977008;28;45409;-82
2022/11/18 03:33:21;;;;;;;;;0.00;0.00;;;;;9.61;77.94;99769.41;4996681;28;45652;-82
2022/11/18 03:35:48;;;;;;;;;0.00;0.00;;;;;9.60;78.00;99776.34;4963259;28;48607;-83
2022/11/18 03:38:16;;;;;;;;;0.00;0.00;;;;;9.58;77.73;99780.75;4996241;28;45505;-83
2022/11/18 03:40:46;;;;;;;;;0.00;0.00;;;;;9.57;77.52;99789.47;4976938;28;45388;-83
2022/11/18 03:43:15;;;;;;;;;0.50;0.00;;;;;9.56;77.88;99787.75;4976896;28;45528;-83
2022/11/18 03:45:48;;;;;;;;;0.00;0.00;;;;;9.58;77.95;99795.50;4976763;28;46715;-82
2022/11/18 03:48:14;;;;;;;;;0.00;0.00;;;;;9.58;77.96;99795.50;4960340;28;45367;-82
2022/11/18 03:50:49;;;;;;;;;1.25;0.00;;;;;9.61;77.63;99797.97;4976614;28;45375;-82
2022/11/18 03:53:16;;;;;;;;;0.00;0.00;;;;;9.60;77.90;99802.34;4976734;28;45298;-83
2022/11/18 03:55:45;;;;;;;;;0.00;0.00;;;;;9.61;77.57;99792.78;4960093;28;47007;-82
2022/11/18 03:58:20;;;;;;;;;0.00;0.00;;;;;9.62;77.86;99799.66;4976517;28;45356;-82
2022/11/18 04:00:49;;;;;;;;;0.00;0.00;;;;;9.59;77.77;99803.22;4976918;28;45495;-83
2022/11/18 04:03:14;;;;;;;;;0.00;0.00;;;;;9.61;78.08;99811.81;5039028;28;45404;-83
2022/11/18 04:05:41;;;;;;;;;1.00;0.00;;;;;9.62;77.92;99818.72;5057363;28;69982;-83
2022/11/18 04:08:12;;;;;;;;;0.00;0.00;;;;;9.64;78.02;99824.69;5040427;28;45587;-83
2022/11/18 04:10:46;;;;;;;;;0.00;0.00;;;;;9.67;77.65;99823.72;5040156;28;45401;-82
2022/11/18 04:13:31;;;;;;;;;0.00;0.00;;;;;9.71;77.78;99832.22;5040391;28;45452;-82
2022/11/18 04:15:57;;;;;;;;;0.00;0.00;;;;;9.71;77.51;99842.63;5040205;28;45424;-82
2022/11/18 04:18:22;;;;;;;;;2.75;0.00;;;;;9.71;77.51;99846.06;5038074;28;73298;-82
2022/11/18 04:20:48;;;;;;;;;0.00;0.00;;;;;9.72;77.58;99841.75;5058090;28;45385;-83
2022/11/18 04:23:13;;;;;;;;;1.00;0.00;;;;;9.70;77.56;99844.38;5039264;28;64729;-83
2022/11/18 04:25:38;;;;;;;;;0.00;0.00;;;;;9.69;77.53;99853.06;5057236;28;66922;-82
2022/11/18 04:28:04;;;;;;;;;0.00;0.00;;;;;9.66;77.44;99858.41;5039212;28;65207;-83
2022/11/18 04:30:30;;;;;;;;;0.75;0.00;;;;;9.65;77.54;99860.16;5057984;28;45451;-83
2022/11/18 04:32:56;;;;;;;;;0.00;0.00;;;;;9.67;77.73;99863.53;5039509;28;45438;-83
2022/11/18 04:35:21;;;;;;;;;1.50;0.00;;;;;9.68;77.58;99869.59;5039637;28;45599;-83
2022/11/18 04:37:46;;;;;;;;;1.50;0.00;;;;;9.67;77.21;99860.94;5042173;27;62599;-83
2022/11/18 04:40:12;;;;;;;;;1.50;0.00;;;;;9.66;77.66;99872.25;5077253;28;63224;-83
2022/11/18 04:42:37;;;;;;;;;0.00;0.00;;;;;9.65;77.53;99882.69;5077261;28;65918;-83
2022/11/18 04:45:03;;;;;;;;;0.00;0.00;;;;;9.61;77.56;99881.97;5077703;27;46045;-83
2022/11/18 04:47:29;;;;;;;;;0.00;0.00;;;;;9.61;77.67;99883.72;5059453;28;45798;-83
2022/11/18 04:49:54;;;;;;;;;0.00;0.00;;;;;9.58;77.56;99887.28;5077305;27;56985;-83
2022/11/18 04:52:19;;;;;;;;;0.00;0.00;;;;;9.57;77.63;99890.78;5077100;28;66198;-83
2022/11/18 04:54:45;;;;;;;;;0.75;0.00;;;;;9.59;77.64;99888.13;5077778;27;46772;-83
2022/11/18 04:57:11;;;;;;;;;1.00;1.00;;;;;9.59;77.65;99888.97;5059606;28;45381;-83
2022/11/18 04:59:36;;;;;;;;;0.25;0.00;;;;;9.58;77.58;99886.44;5077679;27;45383;-83
2022/11/18 05:02:01;;;;;;;;;0.00;0.00;;;;;9.57;77.78;99893.38;5041540;28;67835;-83
2022/11/18 05:04:30;;;;;;;;;0.00;0.00;;;;;9.54;77.51;99884.88;5059358;28;46190;-83
2022/11/18 05:06:55;;;;;;;;;0.00;0.00;;;;;9.53;77.81;99901.34;5059429;28;45912;-83
2022/11/18 05:09:21;;;;;;;;;1.00;0.00;;;;;9.51;77.30;99901.44;5059669;28;45397;-83
2022/11/18 05:14:31;;;;;;;;;0.00;0.00;;;;;9.48;77.33;99899.78;5062138;28;45375;-83
2022/11/18 05:16:58;;;;;;;;;0.50;0.00;;;;;9.48;77.56;99898.94;5058870;28;45399;-82
2022/11/18 05:19:24;;;;;;;;;0.50;0.50;;;;;9.47;77.43;99905.88;5077567;27;45418;-83
2022/11/18 05:21:49;;;;;;;;;0.50;0.00;;;;;9.45;77.40;99899.91;5059192;28;45465;-82
2022/11/18 05:24:14;;;;;;;;;0.00;0.00;;;;;9.45;77.29;99905.09;5058159;28;69803;-83
2022/11/18 05:26:40;;;;;;;;;0.00;0.00;;;;;9.44;77.59;99916.38;5077413;28;45347;-83
2022/11/18 05:29:05;;;;;;;;;0.75;0.00;;;;;9.40;77.59;99914.81;5076627;27;57024;-83
2022/11/18 05:31:31;;;;;;;;;0.50;0.00;;;;;9.41;77.72;99913.88;5057930;28;45328;-83
2022/11/18 05:33:56;;;;;;;;;3.00;0.00;;;;;9.42;77.07;99923.38;5076286;28;68763;-83
2022/11/18 05:36:22;;;;;;;;;0.00;0.00;;;;;9.39;77.13;99917.47;5076369;28;67079;-82
2022/11/18 05:38:47;;;;;;;;;0.75;0.75;;;;;9.37;77.60;99917.50;5076677;27;45430;-83
2022/11/18 05:43:57;;;;;;;;;0.00;0.00;;;;;9.36;77.24;99920.16;5077004;28;45420;-83
2022/11/18 05:46:23;;;;;;;;;2.50;0.00;;;;;9.38;77.12;99928.75;5076520;28;45535;-83
2022/11/18 05:48:49;;;;;;;;;0.00;0.00;;;;;9.37;77.36;99927.06;5059057;28;45442;-83
2022/11/18 05:51:15;;;;;;;;;0.00;0.00;;;;;9.36;77.25;99926.22;5076848;27;49903;-83
2022/11/18 05:53:40;;;;;;;;;2.00;1.00;;;;;9.35;77.38;99937.50;5058446;28;46881;-83
2022/11/18 05:56:19;;;;;;;;;5.00;2.00;;;;;9.35;77.26;99940.09;5076276;27;59825;-83
2022/11/18 05:58:44;;;;;;;;;1.00;1.00;;;;;9.33;77.53;99947.09;5041898;28;45435;-83
2022/11/18 06:01:11;;;;;;;;;1.25;1.00;;;;;9.30;77.09;99944.59;5076305;27;47141;-83
2022/11/18 06:03:38;;;;;;;;;1.50;1.00;;;;;9.32;77.28;99949.75;5058432;28;45469;-83
2022/11/18 06:06:05;;;;;;;;;3.50;1.00;;;;;9.31;77.15;99961.91;5076668;27;45479;-83
2022/11/18 06:08:36;;;;;;;;;2.50;1.75;;;;;9.29;77.07;99961.94;5058696;27;45445;-83
2022/11/18 06:11:02;;;;;;;;;0.00;0.00;;;;;9.26;77.28;99962.03;5058460;28;45254;-83
2022/11/18 06:13:31;;;;;;;;;1.00;1.00;;;;;9.25;77.06;99972.50;5057258;28;73218;-83
2022/11/18 06:15:56;;;;;;;;;2.75;1.00;;;;;9.23;77.24;99963.91;5058750;27;45586;-83
2022/11/18 06:18:25;;;;;;;;;0.00;0.00;;;;;9.21;77.04;99976.97;5058443;28;45361;-83
2022/11/18 06:20:54;;;;;;;;;2.00;0.00;;;;;9.21;77.05;99982.16;5058606;28;46003;-83
2022/11/18 06:23:19;;;;;;;;;3.00;1.00;;;;;9.21;77.02;99979.56;5058146;28;45832;-83
2022/11/18 06:25:45;;;;;;;;;1.50;0.75;;;;;9.18;77.40;99987.44;5057854;27;54368;-83
2022/11/18 06:28:13;;;;;;;;;0.75;0.75;;;;;9.18;76.86;99990.03;5076013;28;45621;-83
2022/11/18 06:30:38;;;;;;;;;1.00;0.00;;;;;9.17;77.42;99990.09;5058239;28;45548;-83
2022/11/18 06:33:04;;;;;;;;;1.00;0.00;;;;;9.15;77.20;99999.69;5058203;27;45420;-83
2022/11/18 06:35:29;;;;;;;;;2.00;0.00;;;;;9.14;76.89;100000.56;5057154;28;67728;-83
2022/11/18 06:37:54;;;;;;;;;1.00;1.00;;;;;9.14;77.24;100000.56;5075063;27;65926;-83
2022/11/18 06:40:19;;;;;;;;;1.00;1.00;;;;;9.11;77.40;99992.00;5057313;28;59962;-83
2022/11/18 06:45:29;;;;;;;;;1.50;0.75;;;;;9.05;77.04;100010.41;5060843;28;45829;-83
2022/11/18 06:47:59;;;;;;;;;1.00;1.00;;;;;9.02;77.01;100017.44;5075520;28;53728;-83
2022/11/18 06:50:25;;;;;;;;;1.00;1.00;;;;;8.99;77.13;100013.22;5076184;28;45330;-83
2022/11/18 06:52:50;;;;;;;;;0.25;0.25;;;;;9.01;77.49;100010.56;5074580;27;47535;-83
2022/11/18 06:55:16;;;;;;;;;0.50;0.50;;;;;8.99;77.17;100021.00;5075311;27;63889;-83
2022/11/18 06:57:41;;;;;;;;;1.50;1.00;;;;;8.98;77.21;100026.22;5074811;28;64052;-83
2022/11/18 07:00:07;;;;;;;;;2.00;0.00;;;;;8.97;77.40;100029.72;5075477;28;54402;-83
2022/11/18 07:02:35;;;;;;;;;0.25;0.25;;;;;8.95;77.16;100029.75;5075809;27;46352;-83
2022/11/18 07:05:00;;;;;;;;;2.00;1.00;;;;;8.93;77.26;100030.72;5075679;27;45367;-83
2022/11/18 07:07:25;;;;;;;;;5.50;1.00;;;;;8.91;77.49;100038.56;5057873;28;45411;-83
2022/11/18 07:09:51;;;;;;;;;2.00;0.25;;;;;8.88;77.32;100041.28;5075838;27;45579;-83
2022/11/18 07:12:16;;;;;;;;;1.00;1.00;;;;;8.87;77.25;100047.34;5056640;28;60444;-83
2022/11/18 07:14:41;;;;;;;;;3.25;0.25;;;;;8.88;77.02;100051.66;5075697;28;45372;-83
2022/11/18 07:17:07;;;;;;;;;1.00;0.25;;;;;8.87;77.44;100062.91;5075009;28;63400;-83
2022/11/18 07:19:32;;;;;;;;;1.50;0.25;;;;;8.84;77.35;100065.59;5076041;27;45518;-83
2022/11/18 07:21:58;;;;;;;;;1.00;0.50;;;;;8.84;77.36;100069.06;5074834;27;67834;-83
2022/11/18 07:24:24;;;;;;;;;1.50;0.75;;;;;8.82;77.28;100078.66;5075630;28;45806;-83
2022/11/18 07:26:52;;;;;;;;;1.00;1.00;;;;;8.83;77.24;100079.50;5074569;28;64820;-83
2022/11/18 07:29:17;;;;;;;;;1.00;1.00;;;;;8.84;77.66;100084.63;5057697;28;45461;-83
2022/11/18 07:31:42;;;;;;;;;3.50;0.75;;;;;8.85;77.28;100081.13;5056651;28;64531;-83
2022/11/18 07:34:08;;;;;;;;;1.00;1.00;;;;;8.84;77.37;100087.25;5075025;28;51866;-83
2022/11/18 07:36:33;;;;;;;;;1.75;1.75;;;;;8.85;77.50;100096.69;5075537;27;45381;-84
2022/11/18 07:38:59;;;;;;;;;2.00;1.25;;;;;8.86;77.34;100101.00;5074482;27;59890;-82
2022/11/18 07:41:26;;;;;;;;;1.00;0.50;;;;;8.87;77.60;100105.28;5074849;27;46191;-82
2022/11/18 07:43:53;;;;;;;;;3.00;0.00;;;;;8.87;77.64;100112.22;5057213;28;45429;-81
2022/11/18 07:46:24;;;;;;;;;1.00;0.75;;;;;8.90;77.59;100114.75;5075420;28;45349;-82
2022/11/18 07:48:51;;;;;;;;;1.75;1.00;;;;;8.93;77.60;100112.03;5057206;28;45558;-81
2022/11/18 07:51:18;;;;;;;;;0.00;0.00;;;;;8.96;77.83;100116.28;5075232;27;45382;-81
2022/11/18 07:53:44;;;;;;;;;2.00;1.25;;;;;8.98;77.47;100114.50;5058369;28;45335;-81
2022/11/18 07:56:10;;;;;;;;;2.00;1.00;;;;;8.99;77.70;100124.84;5076465;28;45486;-82
2022/11/18 07:58:35;;;;;;;;;1.00;1.00;;;;;9.03;77.67;100130.78;5059316;27;45526;-81
2022/11/18 08:01:08;;;;;;;;;1.00;1.00;;;;;9.09;77.86;100131.41;5076670;27;69091;-82
2022/11/18 08:03:34;;;;;;;;;4.00;1.25;;;;;9.17;77.31;100135.50;5078063;27;45682;-83
2022/11/18 08:06:00;;;;;;;;;1.00;1.00;;;;;9.22;77.82;100142.25;5060702;28;45380;-82
2022/11/18 08:08:25;;;;;;;;;3.50;1.25;;;;;9.28;77.58;100142.03;5060214;28;45324;-83
2022/11/18 08:10:54;;;;;;;;;2.75;1.00;;;;;9.37;77.41;100138.28;5077600;27;46493;-81
2022/11/18 08:13:20;;;;;;;;;1.50;1.50;;;;;9.42;77.09;100133.78;5078069;28;45661;-81
2022/11/18 08:15:45;;;;;;;;;2.75;1.00;;;;;9.49;77.14;100143.09;5059353;28;64349;-84
2022/11/18 08:18:10;;;;;;;;;1.00;1.00;;;;;9.59;77.19;100137.56;5066123;28;60999;-83
2022/11/18 08:20:36;;;;;;;;;1.00;1.00;;;;;9.66;76.92;100133.88;5077200;27;67814;-82
2022/11/18 08:23:01;;;;;;;;;1.25;0.50;;;;;9.67;76.99;100140.75;5076870;27;63579;-84
2022/11/18 08:25:26;;;;;;;;;0.00;0.00;;;;;9.66;76.52;100146.84;5077687;28;45462;-83
2022/11/18 08:27:52;;;;;;;;;2.00;1.75;;;;;9.69;76.16;100149.34;5059555;28;52148;-82
2022/11/18 08:30:17;;;;;;;;;2.25;1.00;;;;;9.71;76.50;100150.13;5071546;28;66646;-81
2022/11/18 08:32:43;;;;;;;;;2.50;1.00;;;;;9.73;75.86;100144.88;5066330;28;46054;-83
2022/11/18 08:35:08;;;;;;;;;1.75;1.00;;;;;9.77;76.09;100143.88;5067606;28;45545;-82
2022/11/18 08:37:34;;;;;;;;;1.00;1.00;;;;;9.81;76.15;100145.47;5069671;27;45521;-84
2022/11/18 08:39:59;;;;;;;;;2.00;0.00;;;;;9.87;76.19;100153.88;5069779;28;45510;-81
2022/11/18 08:42:25;;;;;;;;;1.00;0.00;;;;;9.91;75.68;100151.19;5053192;28;45844;-82
2022/11/18 08:44:50;;;;;;;;;3.00;0.25;;;;;9.93;75.90;100155.41;5072260;27;45494;-83
2022/11/18 08:47:16;;;;;;;;;3.00;1.25;;;;;9.97;75.73;100149.19;5062103;27;66970;-84
2022/11/18 08:49:41;;;;;;;;;2.75;0.75;;;;;10.03;75.55;100161.16;5059152;27;55118;-83
2022/11/18 08:52:07;;;;;;;;;1.25;0.00;;;;;10.08;75.67;100159.22;5048628;28;65748;-83
2022/11/18 08:54:33;;;;;;;;;1.00;1.00;;;;;10.07;75.39;100160.16;5035785;28;45313;-84
2022/11/18 08:56:58;;;;;;;;;2.00;0.00;;;;;10.08;75.65;100172.22;5070850;27;45306;-83
2022/11/18 08:59:23;;;;;;;;;0.00;0.00;;;;;10.12;75.32;100163.41;5039366;28;67762;-84
2022/11/18 09:01:49;;;;;;;;;3.00;1.00;;;;;10.21;75.63;100173.47;5046421;28;72914;-83
2022/11/18 09:04:14;;;;;;;;;3.00;0.00;;;;;10.23;75.37;100163.88;5068592;27;45898;-84
2022/11/18 09:06:39;;;;;;;;;0.75;0.00;;;;;10.25;75.21;100164.69;5069928;27;45780;-82
2022/11/18 09:09:07;;;;;;;;;0.75;0.75;;;;;10.31;75.11;100167.97;5067579;28;45786;-84
2022/11/18 09:11:33;;;;;;;;;1.00;1.00;;;;;10.35;74.72;100165.22;5052942;28;45715;-82
2022/11/18 09:13:59;;;;;;;;;0.50;0.00;;;;;10.39;75.04;100171.16;5059760;28;45489;-85
2022/11/18 09:16:26;;;;;;;;;1.00;0.00;;;;;10.43;75.27;100164.91;5061276;28;45877;-84
2022/11/18 09:18:51;;;;;;;;;1.50;1.00;;;;;10.49;74.91;100171.66;5058794;28;45781;-86
2022/11/18 09:21:17;;;;;;;;;2.00;1.00;;;;;10.52;74.32;100171.53;5064954;28;45442;-84
2022/11/18 09:23:43;;;;;;;;;1.00;0.75;;;;;10.52;74.64;100188.00;5034296;28;45718;-81
2022/11/18 09:26:11;;;;;;;;;0.00;0.00;;;;;10.58;74.62;100185.16;5048156;28;45456;-82
2022/11/18 09:28:37;;;;;;;;;0.25;0.00;;;;;10.61;74.17;100189.41;5069695;28;45407;-82
2022/11/18 09:31:04;;;;;;;;;0.00;0.00;;;;;10.64;74.41;100192.75;5041212;28;45450;-81
2022/11/18 09:33:29;;;;;;;;;3.00;1.00;;;;;10.72;73.96;100192.47;5072680;28;45368;-82
2022/11/18 09:35:54;;;;;;;;;3.00;0.00;;;;;10.81;74.47;100194.72;5076660;28;45343;-82
2022/11/18 09:38:20;;;;;;;;;0.00;0.00;;;;;10.92;73.81;100189.09;5073240;28;68481;-82
2022/11/18 09:41:14;;;;;;;;;1.25;1.00;;;;;10.97;73.76;100186.28;5054464;28;45365;-82
2022/11/18 09:44:01;;;;;;;;;0.00;0.00;;;;;10.99;73.73;100189.69;5045715;28;45383;-82
2022/11/18 09:46:39;;;;;;;;;4.00;0.00;;;;;11.04;73.20;100199.00;5056433;28;45432;-82
2022/11/18 09:49:13;;;;;;;;;0.00;0.00;;;;;11.14;73.29;100191.66;5054619;28;48276;-81
2022/11/18 09:51:49;;;;;;;;;2.00;0.50;;;;;11.21;73.32;100200.94;5056182;28;45862;-82
2022/11/18 09:54:20;;;;;;;;;0.25;0.25;;;;;11.27;73.27;100202.44;5056873;28;45379;-82
2022/11/18 09:56:47;;;;;;;;;2.00;0.00;;;;;11.37;73.22;100205.56;5064829;28;45395;-81
2022/11/18 09:59:14;;;;;;;;;0.00;0.00;;;;;11.42;72.49;100204.44;5059662;28;45289;-82
2022/11/18 10:01:40;;;;;;;;;0.00;0.00;;;;;11.47;72.76;100200.81;5047721;28;45718;-82
2022/11/18 10:04:12;;;;;;;;;0.00;0.00;;;;;11.55;72.42;100201.31;5043986;28;45363;-82
2022/11/18 10:06:37;;;;;;;;;0.00;0.00;;;;;11.60;72.42;100208.03;5057486;28;45331;-82
2022/11/18 10:09:12;;;;;;;;;1.25;0.50;;;;;11.65;71.92;100210.47;5067198;28;65176;-82
2022/11/18 10:12:00;;;;;;;;;1.00;1.00;;;;;11.68;71.65;100218.16;5053530;28;45420;-82
2022/11/18 10:14:39;;;;;;;;;1.00;1.00;;;;;11.75;71.73;100216.13;5041545;28;45329;-81
2022/11/18 10:17:07;;;;;;;;;0.25;0.25;;;;;11.86;71.67;100215.69;5052186;28;45559;-82
2022/11/18 10:20:02;;;;;;;;;1.50;0.00;;;;;11.93;71.27;100215.38;5056454;28;45515;-82
2022/11/18 10:22:32;;;;;;;;;6.50;1.00;;;;;11.97;71.13;100209.13;5065548;28;45670;-81
2022/11/18 10:25:01;;;;;;;;;0.00;0.00;;;;;12.08;70.62;100202.59;5057846;28;45411;-82
2022/11/18 10:27:37;;;;;;;;;0.00;0.00;;;;;12.27;70.84;100205.25;5071416;27;45214;-83
2022/11/18 10:30:20;;;;;;;;;0.25;0.00;;;;;12.40;69.99;100215.06;5069647;27;45761;-83
2022/11/18 10:32:55;;;;;;;;;0.50;0.50;;;;;12.43;69.47;100216.69;5038575;28;45538;-82
2022/11/18 10:35:39;;;;;;;;;0.75;0.00;;;;;12.51;69.69;100219.78;5054316;27;45707;-82
2022/11/18 10:38:14;;;;;;;;;1.00;1.00;;;;;12.60;69.23;100213.31;5060013;28;45306;-83
2022/11/18 10:40:50;;;;;;;;;0.00;0.00;;;;;12.79;69.68;100219.38;5073704;28;48643;-82
2022/11/18 10:43:44;;;;;;;;;5.50;0.75;;;;;13.18;69.06;100218.41;5075147;28;45804;-81
2022/11/18 10:46:33;;;;;;;;;2.00;0.00;;;;;13.47;67.62;100215.34;5057500;28;45442;-82
2022/11/18 10:49:07;;;;;;;;;4.00;1.00;;;;;13.75;66.97;100220.06;5075159;28;45496;-82
2022/11/18 10:51:32;;;;;;;;;0.00;0.00;;;;;13.96;66.23;100225.97;5075280;28;45453;-82
2022/11/18 10:54:17;;;;;;;;;1.00;0.25;;;;;13.94;65.02;100228.66;5054358;28;64402;-83
2022/11/18 10:56:54;;;;;;;;;0.25;0.25;;;;;13.96;66.46;100220.72;5055261;28;45288;-83
2022/11/18 10:59:52;;;;;;;;;1.75;0.50;;;;;15.20;65.27;100218.47;5055185;28;45513;-82
2022/11/18 11:02:24;;;;;;;;;1.50;0.00;;;;;15.98;62.16;100217.53;5060336;28;45611;-82
2022/11/18 11:04:51;;;;;;;;;0.25;0.00;;;;;16.63;61.36;100219.69;5071215;28;45521;-81
2022/11/18 11:07:35;;;;;;;;;1.00;1.00;;;;;17.84;59.33;100225.94;5073616;28;45479;-82
2022/11/18 11:10:07;;;;;;;;;1.00;0.00;;;;;18.95;55.97;100224.41;5052095;28;45387;-81
2022/11/18 11:12:45;;;;;;;;;0.50;0.50;;;;;19.15;52.46;100215.91;5054970;28;45511;-83
2022/11/18 11:15:15;;;;;;;;;4.00;1.00;;;;;19.40;52.72;100223.81;5060169;28;45846;-84
2022/11/18 11:18:40;;;;;;;;;2.00;1.00;;;;;19.50;52.34;100223.00;5057239;28;45273;-82
2022/11/18 11:20:37;;;;;;;;;1.00;1.00;;;;;18.78;52.10;100222.97;5060034;28;45434;-82
2022/11/18 11:23:10;;;;;;;;;1.75;0.75;;;;;18.04;53.05;100227.28;5056566;28;45472;-82
2022/11/18 11:25:54;;;;;;;;;0.50;0.50;;;;;17.26;54.28;100231.50;5044322;28;45551;-83
2022/11/18 11:28:32;;;;;;;;;2.00;0.50;;;;;16.60;54.65;100235.63;5038570;28;45260;-83
2022/11/18 11:31:14;;;;;;;;;1.25;0.00;;;;;16.01;56.19;100230.44;5059929;28;45518;-83
2022/11/18 11:34:00;;;;;;;;;0.00;0.00;;;;;15.55;57.08;100228.72;5061005;28;46895;-81
2022/11/18 11:36:44;;;;;;;;;2.00;0.00;;;;;15.18;58.16;100225.59;5072053;27;45387;-82
2022/11/18 11:39:44;;;;;;;;;2.25;0.00;;;;;14.95;58.31;100224.25;5058032;28;45549;-83
2022/11/18 11:42:36;;;;;;;;;0.50;0.50;;;;;14.94;59.11;100219.09;5061061;28;46389;-83
2022/11/18 11:45:34;;;;;;;;;0.00;0.00;;;;;15.39;59.19;100226.13;5074202;27;45551;-81
2022/11/18 11:48:33;;;;;;;;;0.00;0.00;;;;;15.97;58.24;100229.81;5004162;28;45561;-84
2022/11/18 11:51:02;;;;;;;;;1.00;0.00;;;;;15.86;57.86;100232.19;5013046;28;45576;-83
2022/11/18 11:53:50;;;;;;;;;0.00;0.00;;;;;15.59;57.82;100229.41;4979813;28;45501;-83
2022/11/18 11:56:22;;;;;;;;;0.50;0.50;;;;;15.45;58.47;100225.78;4941140;28;46629;-79
2022/11/18 11:59:08;;;;;;;;;1.50;1.00;;;;;15.78;59.28;100223.94;4956427;28;45464;-80
2022/11/18 12:01:33;;;;;;;;;2.00;2.00;;;;;15.98;57.32;100223.59;4936454;28;45389;-79